KAKH/AKH METAR and TAF weather

Enter ICAO airport designator
Station Type Date Time Source
KAKH METAR 2019/08/19 12:54 UTC NOAA

KAKH 191254Z AUTO 22003KT 10SM CLR 25/22 A3009 RMK AO2 SLP182 T02500217


Station Type Date Time Source
KAKH Decoded METAR 2019/08/19 12:54 UTC NOAA

Station name not available
Aug 19, 2019 - 08:54 AM EDT / 2019.08.19 1254 UTC
Wind: from the SW (220 degrees) at 3 MPH (3 KT):0
Visibility: 10 mile(s):0
Sky conditions: clear
Temperature: 77.0 F (25.0 C)
Dew Point: 71.1 F (21.7 C)
Relative Humidity: 81%
Pressure (altimeter): 30.09 in. Hg (1018 hPa)
ob: KAKH 191254Z AUTO 22003KT 10SM CLR 25/22 A3009 RMK AO2 SLP182 T02500217
cycle: 13

Station Type Date Time Source
KAKH TAF UTC NOAA

Error!

Example: see airport list